sensor_id;sensor_type;location;lat;lon;timestamp;temperature;humidity
33460;DHT22;19795;53.160;6.612;2023-06-22T03:58:13;15.20;99.90
33460;DHT22;19795;53.160;6.612;2023-06-22T04:00:38;15.20;99.90
33460;DHT22;19795;53.160;6.612;2023-06-22T04:03:04;15.40;99.90
33460;DHT22;19795;53.160;6.612;2023-06-22T04:05:30;15.60;99.90
33460;DHT22;19795;53.160;6.612;2023-06-22T04:07:55;15.70;99.90
33460;DHT22;19795;53.160;6.612;2023-06-22T04:10:21;15.70;99.90
33460;DHT22;19795;53.160;6.612;2023-06-22T04:12:47;15.90;99.90
33460;DHT22;19795;53.160;6.612;2023-06-22T04:15:12;16.00;99.90
33460;DHT22;19795;53.160;6.612;2023-06-22T04:17:38;16.10;99.90
33460;DHT22;19795;53.160;6.612;2023-06-22T04:20:04;16.30;99.90
33460;DHT22;19795;53.160;6.612;2023-06-22T04:22:30;16.30;99.90
33460;DHT22;19795;53.160;6.612;2023-06-22T04:24:56;16.30;99.90
33460;DHT22;19795;53.160;6.612;2023-06-22T04:27:21;16.30;99.90
33460;DHT22;19795;53.160;6.612;2023-06-22T04:29:48;16.30;99.90
33460;DHT22;19795;53.160;6.612;2023-06-22T04:32:17;16.30;99.90
33460;DHT22;19795;53.160;6.612;2023-06-22T04:34:44;16.30;99.90
33460;DHT22;19795;53.160;6.612;2023-06-22T04:37:09;16.40;99.90
33460;DHT22;19795;53.160;6.612;2023-06-22T04:39:41;16.50;99.90
33460;DHT22;19795;53.160;6.612;2023-06-22T04:42:07;16.60;99.90
33460;DHT22;19795;53.160;6.612;2023-06-22T04:44:32;16.60;99.90
33460;DHT22;19795;53.160;6.612;2023-06-22T04:47:01;16.80;99.90
33460;DHT22;19795;53.160;6.612;2023-06-22T04:49:29;16.80;99.90
33460;DHT22;19795;53.160;6.612;2023-06-22T04:51:59;16.80;99.90
33460;DHT22;19795;53.160;6.612;2023-06-22T04:54:25;16.90;99.90
33460;DHT22;19795;53.160;6.612;2023-06-22T04:56:51;17.00;99.90
33460;DHT22;19795;53.160;6.612;2023-06-22T04:59:26;17.00;99.90
33460;DHT22;19795;53.160;6.612;2023-06-22T05:01:55;17.10;99.90
33460;DHT22;19795;53.160;6.612;2023-06-22T05:04:21;17.20;99.90
33460;DHT22;19795;53.160;6.612;2023-06-22T05:06:48;17.30;99.90
33460;DHT22;19795;53.160;6.612;2023-06-22T05:09:14;17.40;99.90
33460;DHT22;19795;53.160;6.612;2023-06-22T05:11:40;17.60;99.90
33460;DHT22;19795;53.160;6.612;2023-06-22T05:14:05;18.20;99.90
33460;DHT22;19795;53.160;6.612;2023-06-22T05:16:32;18.60;99.90
33460;DHT22;19795;53.160;6.612;2023-06-22T05:18:58;19.10;99.90
33460;DHT22;19795;53.160;6.612;2023-06-22T05:21:26;19.30;99.90
33460;DHT22;19795;53.160;6.612;2023-06-22T05:23:53;19.50;99.90
33460;DHT22;19795;53.160;6.612;2023-06-22T05:26:20;19.80;99.90
33460;DHT22;19795;53.160;6.612;2023-06-22T05:28:47;19.80;99.90
33460;DHT22;19795;53.160;6.612;2023-06-22T05:31:16;20.20;99.90
33460;DHT22;19795;53.160;6.612;2023-06-22T05:33:43;20.70;99.90
33460;DHT22;19795;53.160;6.612;2023-06-22T05:36:09;20.90;99.90
33460;DHT22;19795;53.160;6.612;2023-06-22T05:38:36;21.40;99.90
33460;DHT22;19795;53.160;6.612;2023-06-22T05:41:02;21.90;99.90
33460;DHT22;19795;53.160;6.612;2023-06-22T05:43:28;22.00;99.90
33460;DHT22;19795;53.160;6.612;2023-06-22T05:45:54;22.30;99.90
33460;DHT22;19795;53.160;6.612;2023-06-22T05:48:19;22.50;99.90
33460;DHT22;19795;53.160;6.612;2023-06-22T05:50:45;22.60;99.90
33460;DHT22;19795;53.160;6.612;2023-06-22T05:53:11;22.50;99.90
33460;DHT22;19795;53.160;6.612;2023-06-22T05:55:37;22.50;99.90
33460;DHT22;19795;53.160;6.612;2023-06-22T05:58:02;22.40;99.90
33460;DHT22;19795;53.160;6.612;2023-06-22T06:00:31;22.20;99.90
33460;DHT22;19795;53.160;6.612;2023-06-22T06:02:57;22.10;99.90
33460;DHT22;19795;53.160;6.612;2023-06-22T06:05:31;22.20;99.90
33460;DHT22;19795;53.160;6.612;2023-06-22T06:07:59;22.70;99.90
33460;DHT22;19795;53.160;6.612;2023-06-22T06:10:25;23.30;99.90
33460;DHT22;19795;53.160;6.612;2023-06-22T06:12:51;23.60;99.90
33460;DHT22;19795;53.160;6.612;2023-06-22T06:15:16;23.40;99.90
33460;DHT22;19795;53.160;6.612;2023-06-22T06:17:52;23.10;99.90
33460;DHT22;19795;53.160;6.612;2023-06-22T06:20:20;23.40;99.90
33460;DHT22;19795;53.160;6.612;2023-06-22T06:22:46;24.10;99.90
33460;DHT22;19795;53.160;6.612;2023-06-22T06:25:12;24.90;99.90
33460;DHT22;19795;53.160;6.612;2023-06-22T06:27:48;24.70;99.90
33460;DHT22;19795;53.160;6.612;2023-06-22T06:30:16;24.10;99.90
33460;DHT22;19795;53.160;6.612;2023-06-22T06:32:43;23.60;99.90
33460;DHT22;19795;53.160;6.612;2023-06-22T06:35:11;23.60;99.90
33460;DHT22;19795;53.160;6.612;2023-06-22T06:37:39;24.00;99.90
33460;DHT22;19795;53.160;6.612;2023-06-22T06:40:09;24.40;99.90
33460;DHT22;19795;53.160;6.612;2023-06-22T06:42:47;24.40;99.90
33460;DHT22;19795;53.160;6.612;2023-06-22T06:45:16;24.90;99.90
33460;DHT22;19795;53.160;6.612;2023-06-22T06:47:42;25.00;99.90
33460;DHT22;19795;53.160;6.612;2023-06-22T06:50:09;25.20;99.90
33460;DHT22;19795;53.160;6.612;2023-06-22T06:52:35;25.40;99.90
33460;DHT22;19795;53.160;6.612;2023-06-22T06:55:01;25.10;99.90
33460;DHT22;19795;53.160;6.612;2023-06-22T06:57:26;25.30;99.90
33460;DHT22;19795;53.160;6.612;2023-06-22T06:59:55;25.20;99.90
33460;DHT22;19795;53.160;6.612;2023-06-22T07:02:21;24.60;99.90
33460;DHT22;19795;53.160;6.612;2023-06-22T07:04:47;24.30;99.90
33460;DHT22;19795;53.160;6.612;2023-06-22T07:07:13;24.00;99.90
33460;DHT22;19795;53.160;6.612;2023-06-22T07:09:39;24.20;99.90
33460;DHT22;19795;53.160;6.612;2023-06-22T07:12:05;25.00;99.90
33460;DHT22;19795;53.160;6.612;2023-06-22T07:14:30;24.90;99.90
33460;DHT22;19795;53.160;6.612;2023-06-22T07:16:57;25.00;99.90
33460;DHT22;19795;53.160;6.612;2023-06-22T07:19:27;24.60;99.90
33460;DHT22;19795;53.160;6.612;2023-06-22T07:21:56;24.60;99.90
33460;DHT22;19795;53.160;6.612;2023-06-22T07:24:22;24.60;99.90
33460;DHT22;19795;53.160;6.612;2023-06-22T07:26:48;23.70;99.90
33460;DHT22;19795;53.160;6.612;2023-06-22T07:29:18;23.90;99.90
33460;DHT22;19795;53.160;6.612;2023-06-22T07:31:46;23.90;99.90
33460;DHT22;19795;53.160;6.612;2023-06-22T07:34:13;24.40;99.90
33460;DHT22;19795;53.160;6.612;2023-06-22T07:36:38;25.40;99.90
33460;DHT22;19795;53.160;6.612;2023-06-22T07:39:04;25.80;99.90
33460;DHT22;19795;53.160;6.612;2023-06-22T07:41:31;25.70;99.90
33460;DHT22;19795;53.160;6.612;2023-06-22T07:43:56;25.40;99.90
33460;DHT22;19795;53.160;6.612;2023-06-22T07:46:22;25.40;99.90
33460;DHT22;19795;53.160;6.612;2023-06-22T07:48:48;25.80;99.90
33460;DHT22;19795;53.160;6.612;2023-06-22T07:51:14;25.30;99.90
33460;DHT22;19795;53.160;6.612;2023-06-22T07:53:43;25.00;99.90
33460;DHT22;19795;53.160;6.612;2023-06-22T07:56:13;25.20;99.90
33460;DHT22;19795;53.160;6.612;2023-06-22T07:58:44;25.30;99.90
33460;DHT22;19795;53.160;6.612;2023-06-22T08:01:10;25.30;99.90
33460;DHT22;19795;53.160;6.612;2023-06-22T08:03:36;25.70;99.90
33460;DHT22;19795;53.160;6.612;2023-06-22T08:06:02;25.50;99.90
33460;DHT22;19795;53.160;6.612;2023-06-22T08:08:28;25.50;99.90
33460;DHT22;19795;53.160;6.612;2023-06-22T08:10:53;25.60;99.90
33460;DHT22;19795;53.160;6.612;2023-06-22T08:13:19;26.50;99.90
33460;DHT22;19795;53.160;6.612;2023-06-22T08:15:45;26.80;99.90
33460;DHT22;19795;53.160;6.612;2023-06-22T08:18:10;26.70;99.90
33460;DHT22;19795;53.160;6.612;2023-06-22T08:20:36;26.30;99.90
33460;DHT22;19795;53.160;6.612;2023-06-22T08:23:02;26.60;99.90
33460;DHT22;19795;53.160;6.612;2023-06-22T08:25:34;26.20;99.90
33460;DHT22;19795;53.160;6.612;2023-06-22T08:28:01;26.30;99.90
33460;DHT22;19795;53.160;6.612;2023-06-22T08:30:27;26.00;99.90
33460;DHT22;19795;53.160;6.612;2023-06-22T08:32:53;26.40;99.90
33460;DHT22;19795;53.160;6.612;2023-06-22T08:35:21;26.20;99.90
33460;DHT22;19795;53.160;6.612;2023-06-22T08:37:47;26.00;99.90
33460;DHT22;19795;53.160;6.612;2023-06-22T08:40:17;26.40;99.90
33460;DHT22;19795;53.160;6.612;2023-06-22T08:42:45;27.00;99.90
33460;DHT22;19795;53.160;6.612;2023-06-22T08:45:11;26.80;99.90
33460;DHT22;19795;53.160;6.612;2023-06-22T08:47:37;26.60;99.90
33460;DHT22;19795;53.160;6.612;2023-06-22T08:50:03;27.00;99.90
33460;DHT22;19795;53.160;6.612;2023-06-22T08:52:29;26.80;99.90
33460;DHT22;19795;53.160;6.612;2023-06-22T08:54:55;26.70;99.90
33460;DHT22;19795;53.160;6.612;2023-06-22T08:57:21;27.10;99.90
33460;DHT22;19795;53.160;6.612;2023-06-22T08:59:47;27.20;99.90
33460;DHT22;19795;53.160;6.612;2023-06-22T09:02:13;27.30;99.90
33460;DHT22;19795;53.160;6.612;2023-06-22T09:04:38;27.30;99.90
33460;DHT22;19795;53.160;6.612;2023-06-22T09:07:04;26.70;99.90
33460;DHT22;19795;53.160;6.612;2023-06-22T09:09:30;26.80;99.90
33460;DHT22;19795;53.160;6.612;2023-06-22T09:11:56;27.10;99.90
33460;DHT22;19795;53.160;6.612;2023-06-22T09:14:21;27.00;99.90
33460;DHT22;19795;53.160;6.612;2023-06-22T09:16:47;26.80;99.90
33460;DHT22;19795;53.160;6.612;2023-06-22T09:19:13;26.10;99.90
33460;DHT22;19795;53.160;6.612;2023-06-22T09:21:38;26.70;99.90
33460;DHT22;19795;53.160;6.612;2023-06-22T09:24:04;27.00;99.90
33460;DHT22;19795;53.160;6.612;2023-06-22T09:26:30;27.20;99.90
33460;DHT22;19795;53.160;6.612;2023-06-22T09:28:56;27.10;99.90
33460;DHT22;19795;53.160;6.612;2023-06-22T09:31:21;26.70;99.90
33460;DHT22;19795;53.160;6.612;2023-06-22T09:33:52;26.50;99.90
33460;DHT22;19795;53.160;6.612;2023-06-22T09:36:18;26.60;99.90
33460;DHT22;19795;53.160;6.612;2023-06-22T09:38:44;26.80;99.90
33460;DHT22;19795;53.160;6.612;2023-06-22T09:41:09;26.70;99.90
33460;DHT22;19795;53.160;6.612;2023-06-22T09:43:35;26.80;99.90
33460;DHT22;19795;53.160;6.612;2023-06-22T09:46:01;27.00;99.90
33460;DHT22;19795;53.160;6.612;2023-06-22T09:48:28;26.90;99.90
33460;DHT22;19795;53.160;6.612;2023-06-22T09:50:54;27.30;99.90
33460;DHT22;19795;53.160;6.612;2023-06-22T09:53:20;27.40;99.90
33460;DHT22;19795;53.160;6.612;2023-06-22T09:55:46;27.10;99.90
33460;DHT22;19795;53.160;6.612;2023-06-22T09:58:11;27.30;99.90
33460;DHT22;19795;53.160;6.612;2023-06-22T10:00:38;27.00;99.90
33460;DHT22;19795;53.160;6.612;2023-06-22T10:03:04;27.10;99.90
33460;DHT22;19795;53.160;6.612;2023-06-22T10:05:30;27.40;99.90
33460;DHT22;19795;53.160;6.612;2023-06-22T10:07:55;27.20;99.90
33460;DHT22;19795;53.160;6.612;2023-06-22T10:10:21;27.40;99.90
33460;DHT22;19795;53.160;6.612;2023-06-22T10:12:55;27.20;99.90
33460;DHT22;19795;53.160;6.612;2023-06-22T10:15:22;27.30;99.90
33460;DHT22;19795;53.160;6.612;2023-06-22T10:17:47;27.80;99.90
33460;DHT22;19795;53.160;6.612;2023-06-22T10:20:13;27.80;99.90
33460;DHT22;19795;53.160;6.612;2023-06-22T10:22:40;27.90;99.90
33460;DHT22;19795;53.160;6.612;2023-06-22T10:25:07;28.00;99.90
33460;DHT22;19795;53.160;6.612;2023-06-22T10:27:33;27.50;99.90
33460;DHT22;19795;53.160;6.612;2023-06-22T10:29:59;27.20;99.90
33460;DHT22;19795;53.160;6.612;2023-06-22T10:32:24;27.50;99.90
33460;DHT22;19795;53.160;6.612;2023-06-22T10:34:50;27.70;99.90
33460;DHT22;19795;53.160;6.612;2023-06-22T10:37:15;27.80;99.90
33460;DHT22;19795;53.160;6.612;2023-06-22T10:39:41;28.00;99.90
33460;DHT22;19795;53.160;6.612;2023-06-22T10:42:07;28.00;99.90
33460;DHT22;19795;53.160;6.612;2023-06-22T10:44:33;28.20;99.90
33460;DHT22;19795;53.160;6.612;2023-06-22T10:46:58;27.60;99.90
33460;DHT22;19795;53.160;6.612;2023-06-22T10:49:24;27.30;99.90
33460;DHT22;19795;53.160;6.612;2023-06-22T10:51:49;27.40;99.90
33460;DHT22;19795;53.160;6.612;2023-06-22T10:54:15;27.80;99.90
33460;DHT22;19795;53.160;6.612;2023-06-22T10:56:43;28.40;99.90
33460;DHT22;19795;53.160;6.612;2023-06-22T10:59:09;28.40;99.90
33460;DHT22;19795;53.160;6.612;2023-06-22T11:01:34;27.90;99.90
33460;DHT22;19795;53.160;6.612;2023-06-22T11:04:00;28.70;99.80
33460;DHT22;19795;53.160;6.612;2023-06-22T11:06:26;29.00;99.80
33460;DHT22;19795;53.160;6.612;2023-06-22T11:08:52;28.70;99.00
33460;DHT22;19795;53.160;6.612;2023-06-22T11:11:17;28.50;99.50
33460;DHT22;19795;53.160;6.612;2023-06-22T11:13:43;28.80;99.80
33460;DHT22;19795;53.160;6.612;2023-06-22T11:16:10;28.80;99.90
33460;DHT22;19795;53.160;6.612;2023-06-22T11:18:36;29.20;98.90
33460;DHT22;19795;53.160;6.612;2023-06-22T11:21:01;28.70;98.20
33460;DHT22;19795;53.160;6.612;2023-06-22T11:23:27;28.20;99.40
33460;DHT22;19795;53.160;6.612;2023-06-22T11:25:54;28.40;98.80
33460;DHT22;19795;53.160;6.612;2023-06-22T11:28:20;28.50;99.80
33460;DHT22;19795;53.160;6.612;2023-06-22T11:30:46;28.30;98.90
33460;DHT22;19795;53.160;6.612;2023-06-22T11:33:11;27.80;99.30
33460;DHT22;19795;53.160;6.612;2023-06-22T11:35:37;27.80;99.20
33460;DHT22;19795;53.160;6.612;2023-06-22T11:38:03;27.60;99.90
33460;DHT22;19795;53.160;6.612;2023-06-22T11:40:30;27.30;99.90
33460;DHT22;19795;53.160;6.612;2023-06-22T11:42:56;27.20;99.90
33460;DHT22;19795;53.160;6.612;2023-06-22T11:45:22;27.80;99.90
33460;DHT22;19795;53.160;6.612;2023-06-22T11:47:47;28.00;99.80
33460;DHT22;19795;53.160;6.612;2023-06-22T11:50:13;28.30;99.10
33460;DHT22;19795;53.160;6.612;2023-06-22T11:52:39;27.60;99.90
33460;DHT22;19795;53.160;6.612;2023-06-22T11:55:05;27.20;99.90
33460;DHT22;19795;53.160;6.612;2023-06-22T11:57:52;27.20;99.90
33460;DHT22;19795;53.160;6.612;2023-06-22T12:00:18;27.30;99.90
33460;DHT22;19795;53.160;6.612;2023-06-22T12:02:44;27.20;99.90
33460;DHT22;19795;53.160;6.612;2023-06-22T12:05:13;27.20;99.90
33460;DHT22;19795;53.160;6.612;2023-06-22T12:07:38;27.00;99.90
33460;DHT22;19795;53.160;6.612;2023-06-22T12:10:05;27.10;99.90
33460;DHT22;19795;53.160;6.612;2023-06-22T12:12:30;27.00;99.90
33460;DHT22;19795;53.160;6.612;2023-06-22T12:14:56;27.00;99.90
33460;DHT22;19795;53.160;6.612;2023-06-22T12:17:22;27.10;99.90
33460;DHT22;19795;53.160;6.612;2023-06-22T12:19:47;27.40;99.90
33460;DHT22;19795;53.160;6.612;2023-06-22T12:22:13;27.80;99.90
33460;DHT22;19795;53.160;6.612;2023-06-22T12:24:38;27.40;99.90
33460;DHT22;19795;53.160;6.612;2023-06-22T12:27:04;27.30;99.90
33460;DHT22;19795;53.160;6.612;2023-06-22T12:29:30;27.40;99.90
33460;DHT22;19795;53.160;6.612;2023-06-22T12:31:55;26.80;99.90
33460;DHT22;19795;53.160;6.612;2023-06-22T12:34:22;27.00;99.90
33460;DHT22;19795;53.160;6.612;2023-06-22T12:36:47;26.50;99.90
33460;DHT22;19795;53.160;6.612;2023-06-22T12:39:14;26.70;99.90
33460;DHT22;19795;53.160;6.612;2023-06-22T12:41:39;26.50;99.90
33460;DHT22;19795;53.160;6.612;2023-06-22T12:44:05;26.50;99.90
33460;DHT22;19795;53.160;6.612;2023-06-22T12:46:31;26.90;99.90
33460;DHT22;19795;53.160;6.612;2023-06-22T12:49:02;27.10;99.90
33460;DHT22;19795;53.160;6.612;2023-06-22T12:51:29;27.30;99.90
33460;DHT22;19795;53.160;6.612;2023-06-22T12:53:55;27.00;99.90
33460;DHT22;19795;53.160;6.612;2023-06-22T12:56:21;26.70;99.90
33460;DHT22;19795;53.160;6.612;2023-06-22T12:58:46;26.60;99.90
33460;DHT22;19795;53.160;6.612;2023-06-22T13:01:12;26.70;99.90
33460;DHT22;19795;53.160;6.612;2023-06-22T13:03:38;26.90;99.90
33460;DHT22;19795;53.160;6.612;2023-06-22T13:06:03;26.90;99.90
33460;DHT22;19795;53.160;6.612;2023-06-22T13:08:30;26.80;99.90
33460;DHT22;19795;53.160;6.612;2023-06-22T13:10:56;26.70;99.90
33460;DHT22;19795;53.160;6.612;2023-06-22T13:13:25;26.20;99.90
33460;DHT22;19795;53.160;6.612;2023-06-22T13:15:52;26.40;99.90
33460;DHT22;19795;53.160;6.612;2023-06-22T13:18:19;26.50;99.90
33460;DHT22;19795;53.160;6.612;2023-06-22T13:20:45;26.60;99.90
33460;DHT22;19795;53.160;6.612;2023-06-22T13:23:11;26.20;99.90
33460;DHT22;19795;53.160;6.612;2023-06-22T13:25:36;26.00;99.90
33460;DHT22;19795;53.160;6.612;2023-06-22T13:28:02;26.00;99.90
33460;DHT22;19795;53.160;6.612;2023-06-22T13:30:28;25.80;99.90
33460;DHT22;19795;53.160;6.612;2023-06-22T13:32:54;25.60;99.90
33460;DHT22;19795;53.160;6.612;2023-06-22T13:35:19;25.30;99.90
33460;DHT22;19795;53.160;6.612;2023-06-22T13:37:46;25.00;99.90
33460;DHT22;19795;53.160;6.612;2023-06-22T13:40:12;25.10;99.90
33460;DHT22;19795;53.160;6.612;2023-06-22T13:42:38;25.20;99.90
33460;DHT22;19795;53.160;6.612;2023-06-22T13:45:05;25.00;99.90
33460;DHT22;19795;53.160;6.612;2023-06-22T13:47:32;24.90;99.90
33460;DHT22;19795;53.160;6.612;2023-06-22T13:49:58;24.70;99.90
33460;DHT22;19795;53.160;6.612;2023-06-22T13:52:24;24.90;99.90
33460;DHT22;19795;53.160;6.612;2023-06-22T13:54:49;24.60;99.90
33460;DHT22;19795;53.160;6.612;2023-06-22T13:57:15;24.70;99.90
33460;DHT22;19795;53.160;6.612;2023-06-22T13:59:41;24.60;99.90
33460;DHT22;19795;53.160;6.612;2023-06-22T14:02:06;24.60;99.90
33460;DHT22;19795;53.160;6.612;2023-06-22T14:04:33;24.40;99.90
33460;DHT22;19795;53.160;6.612;2023-06-22T14:07:01;24.00;99.90
33460;DHT22;19795;53.160;6.612;2023-06-22T14:09:28;23.90;99.90
33460;DHT22;19795;53.160;6.612;2023-06-22T14:11:56;23.70;99.90
33460;DHT22;19795;53.160;6.612;2023-06-22T14:14:22;23.80;99.90
33460;DHT22;19795;53.160;6.612;2023-06-22T14:16:48;23.80;99.90
33460;DHT22;19795;53.160;6.612;2023-06-22T14:19:17;23.80;99.90
33460;DHT22;19795;53.160;6.612;2023-06-22T14:21:43;24.10;99.90
33460;DHT22;19795;53.160;6.612;2023-06-22T14:24:10;23.90;99.90
33460;DHT22;19795;53.160;6.612;2023-06-22T14:26:36;23.70;99.90
33460;DHT22;19795;53.160;6.612;2023-06-22T14:29:01;23.80;99.90
33460;DHT22;19795;53.160;6.612;2023-06-22T14:31:27;23.60;99.90
33460;DHT22;19795;53.160;6.612;2023-06-22T14:33:53;23.40;99.90
33460;DHT22;19795;53.160;6.612;2023-06-22T14:36:18;23.40;99.90
33460;DHT22;19795;53.160;6.612;2023-06-22T14:38:44;23.40;99.90
33460;DHT22;19795;53.160;6.612;2023-06-22T14:41:11;23.30;99.90
33460;DHT22;19795;53.160;6.612;2023-06-22T14:43:37;23.30;99.90
33460;DHT22;19795;53.160;6.612;2023-06-22T14:46:02;23.60;99.90
33460;DHT22;19795;53.160;6.612;2023-06-22T14:48:29;23.50;99.90
33460;DHT22;19795;53.160;6.612;2023-06-22T14:50:54;23.50;99.90
33460;DHT22;19795;53.160;6.612;2023-06-22T14:53:21;23.30;99.90
33460;DHT22;19795;53.160;6.612;2023-06-22T14:55:47;23.20;99.90
33460;DHT22;19795;53.160;6.612;2023-06-22T14:58:12;23.20;99.90
33460;DHT22;19795;53.160;6.612;2023-06-22T15:00:38;23.00;99.90
33460;DHT22;19795;53.160;6.612;2023-06-22T15:03:04;23.10;99.90
33460;DHT22;19795;53.160;6.612;2023-06-22T15:05:32;23.20;99.90
33460;DHT22;19795;53.160;6.612;2023-06-22T15:07:57;23.30;99.90
33460;DHT22;19795;53.160;6.612;2023-06-22T15:10:24;23.20;99.90
33460;DHT22;19795;53.160;6.612;2023-06-22T15:12:50;23.00;99.90
33460;DHT22;19795;53.160;6.612;2023-06-22T15:15:15;23.00;99.90
33460;DHT22;19795;53.160;6.612;2023-06-22T15:17:41;23.00;99.90
33460;DHT22;19795;53.160;6.612;2023-06-22T15:20:07;22.80;99.90
33460;DHT22;19795;53.160;6.612;2023-06-22T15:22:33;22.50;99.90
33460;DHT22;19795;53.160;6.612;2023-06-22T15:24:59;22.40;99.90
33460;DHT22;19795;53.160;6.612;2023-06-22T15:27:24;22.20;99.90
33460;DHT22;19795;53.160;6.612;2023-06-22T15:29:50;22.30;99.90
33460;DHT22;19795;53.160;6.612;2023-06-22T15:32:16;22.40;99.90
33460;DHT22;19795;53.160;6.612;2023-06-22T15:34:41;22.30;99.90
33460;DHT22;19795;53.160;6.612;2023-06-22T15:37:07;22.30;99.90
33460;DHT22;19795;53.160;6.612;2023-06-22T15:39:33;22.30;99.90
33460;DHT22;19795;53.160;6.612;2023-06-22T15:41:58;22.30;99.90
33460;DHT22;19795;53.160;6.612;2023-06-22T15:44:24;22.30;99.90
33460;DHT22;19795;53.160;6.612;2023-06-22T15:46:50;22.10;99.90
33460;DHT22;19795;53.160;6.612;2023-06-22T15:49:16;22.10;99.90
33460;DHT22;19795;53.160;6.612;2023-06-22T15:51:43;22.10;99.90
33460;DHT22;19795;53.160;6.612;2023-06-22T15:54:09;22.00;99.90
33460;DHT22;19795;53.160;6.612;2023-06-22T15:56:34;22.10;99.90
33460;DHT22;19795;53.160;6.612;2023-06-22T15:59:00;22.10;99.90
33460;DHT22;19795;53.160;6.612;2023-06-22T16:01:26;21.80;99.90
33460;DHT22;19795;53.160;6.612;2023-06-22T16:03:53;21.80;99.90
33460;DHT22;19795;53.160;6.612;2023-06-22T16:06:20;21.80;99.90
33460;DHT22;19795;53.160;6.612;2023-06-22T16:08:46;21.80;99.90
33460;DHT22;19795;53.160;6.612;2023-06-22T16:11:12;21.80;99.90
33460;DHT22;19795;53.160;6.612;2023-06-22T16:13:37;21.70;99.90
33460;DHT22;19795;53.160;6.612;2023-06-22T16:16:04;21.70;99.90
33460;DHT22;19795;53.160;6.612;2023-06-22T16:18:30;21.60;99.90
33460;DHT22;19795;53.160;6.612;2023-06-22T16:20:56;21.60;99.90
33460;DHT22;19795;53.160;6.612;2023-06-22T16:23:22;21.50;99.90
33460;DHT22;19795;53.160;6.612;2023-06-22T16:25:48;21.40;99.90
33460;DHT22;19795;53.160;6.612;2023-06-22T16:28:13;21.30;99.90
33460;DHT22;19795;53.160;6.612;2023-06-22T16:30:39;21.30;99.90
33460;DHT22;19795;53.160;6.612;2023-06-22T16:33:06;21.10;99.90
33460;DHT22;19795;53.160;6.612;2023-06-22T16:35:32;21.00;99.90
33460;DHT22;19795;53.160;6.612;2023-06-22T16:37:58;20.90;99.90
33460;DHT22;19795;53.160;6.612;2023-06-22T16:40:24;21.00;99.90
33460;DHT22;19795;53.160;6.612;2023-06-22T16:42:51;21.00;99.90
33460;DHT22;19795;53.160;6.612;2023-06-22T16:45:17;21.00;99.90
33460;DHT22;19795;53.160;6.612;2023-06-22T16:47:45;21.00;99.90
33460;DHT22;19795;53.160;6.612;2023-06-22T16:50:11;20.90;99.90
33460;DHT22;19795;53.160;6.612;2023-06-22T16:52:37;21.00;99.90
33460;DHT22;19795;53.160;6.612;2023-06-22T16:55:05;20.90;99.90
33460;DHT22;19795;53.160;6.612;2023-06-22T16:57:36;20.80;99.90
33460;DHT22;19795;53.160;6.612;2023-06-22T17:00:03;20.70;99.90
33460;DHT22;19795;53.160;6.612;2023-06-22T17:02:38;20.70;99.90
33460;DHT22;19795;53.160;6.612;2023-06-22T17:05:04;20.70;99.90
33460;DHT22;19795;53.160;6.612;2023-06-22T17:07:33;20.80;99.90
33460;DHT22;19795;53.160;6.612;2023-06-22T17:10:01;20.80;99.90
33460;DHT22;19795;53.160;6.612;2023-06-22T17:12:27;20.80;99.90
33460;DHT22;19795;53.160;6.612;2023-06-22T17:14:54;20.70;99.90
33460;DHT22;19795;53.160;6.612;2023-06-22T17:17:23;20.70;99.90
33460;DHT22;19795;53.160;6.612;2023-06-22T17:19:52;20.60;99.90
33460;DHT22;19795;53.160;6.612;2023-06-22T17:22:18;20.60;99.90
33460;DHT22;19795;53.160;6.612;2023-06-22T17:24:45;20.50;99.90
33460;DHT22;19795;53.160;6.612;2023-06-22T17:27:11;20.40;99.90
33460;DHT22;19795;53.160;6.612;2023-06-22T17:29:38;20.40;99.90
33460;DHT22;19795;53.160;6.612;2023-06-22T17:32:04;20.30;99.90
33460;DHT22;19795;53.160;6.612;2023-06-22T17:34:30;20.30;99.90
33460;DHT22;19795;53.160;6.612;2023-06-22T17:36:58;20.30;99.90
33460;DHT22;19795;53.160;6.612;2023-06-22T17:39:28;20.40;99.90
33460;DHT22;19795;53.160;6.612;2023-06-22T17:41:56;20.40;99.90
33460;DHT22;19795;53.160;6.612;2023-06-22T17:44:26;20.40;99.90
33460;DHT22;19795;53.160;6.612;2023-06-22T17:46:54;20.30;99.90
33460;DHT22;19795;53.160;6.612;2023-06-22T17:49:20;20.30;99.90
33460;DHT22;19795;53.160;6.612;2023-06-22T17:51:50;20.30;99.90
33460;DHT22;19795;53.160;6.612;2023-06-22T17:54:16;20.20;99.90
33460;DHT22;19795;53.160;6.612;2023-06-22T17:56:41;20.20;99.90
33460;DHT22;19795;53.160;6.612;2023-06-22T17:59:12;20.10;99.90
33460;DHT22;19795;53.160;6.612;2023-06-22T18:01:38;20.10;99.90
33460;DHT22;19795;53.160;6.612;2023-06-22T18:04:15;20.00;99.90
33460;DHT22;19795;53.160;6.612;2023-06-22T18:06:42;20.00;99.90
33460;DHT22;19795;53.160;6.612;2023-06-22T18:09:09;20.00;99.90
33460;DHT22;19795;53.160;6.612;2023-06-22T18:11:46;19.90;99.90
33460;DHT22;19795;53.160;6.612;2023-06-22T18:14:19;19.90;99.90
33460;DHT22;19795;53.160;6.612;2023-06-22T18:16:46;19.90;99.90
33460;DHT22;19795;53.160;6.612;2023-06-22T18:19:16;19.90;99.90
33460;DHT22;19795;53.160;6.612;2023-06-22T18:21:46;19.80;99.90
33460;DHT22;19795;53.160;6.612;2023-06-22T18:24:14;19.80;99.90
33460;DHT22;19795;53.160;6.612;2023-06-22T18:26:40;19.80;99.90
33460;DHT22;19795;53.160;6.612;2023-06-22T18:29:07;19.70;99.90
33460;DHT22;19795;53.160;6.612;2023-06-22T18:31:34;19.70;99.90
33460;DHT22;19795;53.160;6.612;2023-06-22T18:34:00;19.70;99.90
33460;DHT22;19795;53.160;6.612;2023-06-22T18:36:34;19.70;99.90
33460;DHT22;19795;53.160;6.612;2023-06-22T18:39:04;19.70;99.90
33460;DHT22;19795;53.160;6.612;2023-06-22T18:41:52;19.60;99.90
33460;DHT22;19795;53.160;6.612;2023-06-22T18:44:21;19.60;99.90
33460;DHT22;19795;53.160;6.612;2023-06-22T18:46:57;19.50;99.90
33460;DHT22;19795;53.160;6.612;2023-06-22T18:49:24;19.50;99.90
33460;DHT22;19795;53.160;6.612;2023-06-22T18:52:02;19.40;99.90
33460;DHT22;19795;53.160;6.612;2023-06-22T18:54:41;19.40;99.90
33460;DHT22;19795;53.160;6.612;2023-06-22T19:02:09;19.10;99.90
33460;DHT22;19795;53.160;6.612;2023-06-22T19:04:40;19.10;99.90
33460;DHT22;19795;53.160;6.612;2023-06-22T19:07:06;19.00;99.90
33460;DHT22;19795;53.160;6.612;2023-06-22T19:09:34;19.00;99.90
33460;DHT22;19795;53.160;6.612;2023-06-22T19:12:20;18.90;99.90
33460;DHT22;19795;53.160;6.612;2023-06-22T19:15:10;18.90;99.90
33460;DHT22;19795;53.160;6.612;2023-06-22T19:17:36;18.80;99.90
33460;DHT22;19795;53.160;6.612;2023-06-22T19:20:05;18.80;99.90
33460;DHT22;19795;53.160;6.612;2023-06-22T19:25:26;18.70;99.90
33460;DHT22;19795;53.160;6.612;2023-06-22T19:27:53;18.70;99.90
33460;DHT22;19795;53.160;6.612;2023-06-22T19:30:20;18.80;99.90
33460;DHT22;19795;53.160;6.612;2023-06-22T19:32:46;18.70;99.90